createdAt,value
2018-07-26T00:00:19.344Z,99.90
2018-07-26T00:02:48.982Z,99.90
2018-07-26T00:05:18.961Z,99.90
2018-07-26T00:07:48.335Z,99.90
2018-07-26T00:10:17.859Z,99.90
2018-07-26T00:12:47.254Z,99.90
2018-07-26T00:15:16.766Z,99.90
2018-07-26T00:17:46.340Z,99.90
2018-07-26T00:20:16.064Z,99.90
2018-07-26T00:22:45.687Z,99.90
2018-07-26T00:25:15.354Z,99.90
2018-07-26T00:27:45.945Z,99.90
2018-07-26T00:30:15.926Z,99.90
2018-07-26T00:32:45.555Z,99.90
2018-07-26T00:35:15.812Z,99.90
2018-07-26T00:37:45.309Z,99.90
2018-07-26T00:40:14.834Z,99.90
2018-07-26T00:42:44.225Z,99.90
2018-07-26T00:45:14.018Z,99.90
2018-07-26T00:50:12.611Z,99.90
2018-07-26T00:52:42.294Z,99.90
2018-07-26T00:55:11.754Z,99.90
2018-07-26T00:57:41.315Z,99.90
2018-07-26T01:00:10.874Z,99.90
2018-07-26T01:02:40.776Z,99.90
2018-07-26T01:05:10.524Z,99.90
2018-07-26T01:07:40.204Z,99.90
2018-07-26T01:10:10.213Z,99.90
2018-07-26T01:12:40.276Z,99.90
2018-07-26T01:15:09.670Z,99.90
2018-07-26T01:17:39.217Z,99.90
2018-07-26T01:20:09.099Z,99.90
2018-07-26T01:22:38.772Z,99.90
2018-07-26T01:25:08.365Z,99.90
2018-07-26T01:27:38.213Z,99.90
2018-07-26T01:30:08.132Z,99.90
2018-07-26T01:32:37.771Z,99.90
2018-07-26T01:35:07.177Z,99.90
2018-07-26T01:37:36.318Z,99.90
2018-07-26T01:40:06.068Z,99.90
2018-07-26T01:45:09.838Z,99.90
2018-07-26T01:47:39.338Z,99.90
2018-07-26T01:50:08.628Z,99.90
2018-07-26T01:52:38.298Z,99.90
2018-07-26T01:55:07.665Z,99.90
2018-07-26T01:57:37.402Z,99.90
2018-07-26T02:00:07.037Z,99.90
2018-07-26T02:02:36.136Z,99.90
2018-07-26T02:05:05.613Z,99.90
2018-07-26T02:07:35.282Z,99.90
2018-07-26T02:10:04.889Z,99.90
2018-07-26T02:12:34.156Z,99.90
2018-07-26T02:15:03.636Z,99.90
2018-07-26T02:17:33.206Z,99.90
2018-07-26T02:20:03.222Z,99.90
2018-07-26T02:22:33.270Z,99.90
2018-07-26T02:25:02.933Z,99.90
2018-07-26T02:27:32.575Z,99.90
2018-07-26T02:30:02.511Z,99.90
2018-07-26T02:32:32.363Z,99.90
2018-07-26T02:37:32.692Z,99.90
2018-07-26T02:40:02.296Z,99.90
2018-07-26T02:45:01.110Z,99.90
2018-07-26T02:47:30.756Z,99.90
2018-07-26T02:50:00.295Z,99.90
2018-07-26T02:52:29.885Z,99.90
2018-07-26T02:55:00.351Z,99.90
2018-07-26T02:57:30.056Z,99.90
2018-07-26T02:59:59.908Z,99.90
2018-07-26T03:02:29.457Z,99.90
2018-07-26T03:04:59.044Z,99.90
2018-07-26T03:07:28.692Z,99.90
2018-07-26T03:09:58.283Z,99.90
2018-07-26T03:12:27.776Z,99.90
2018-07-26T03:14:57.465Z,99.90
2018-07-26T03:17:27.026Z,99.90
2018-07-26T03:19:56.818Z,99.90
2018-07-26T03:22:26.397Z,99.90
2018-07-26T03:24:56.691Z,99.90
2018-07-26T03:27:26.279Z,99.90
2018-07-26T03:29:55.826Z,99.90
2018-07-26T03:32:25.350Z,99.90
2018-07-26T03:34:54.769Z,99.90
2018-07-26T03:37:24.700Z,99.90
2018-07-26T03:39:54.131Z,99.90
2018-07-26T03:42:23.832Z,99.90
2018-07-26T03:44:53.525Z,99.90
2018-07-26T03:47:23.105Z,99.90
2018-07-26T03:49:52.701Z,99.90
2018-07-26T03:52:23.376Z,99.90
2018-07-26T03:54:52.874Z,99.90
2018-07-26T03:57:23.048Z,99.90
2018-07-26T03:59:52.837Z,99.90
2018-07-26T04:02:22.334Z,99.90
2018-07-26T04:04:51.943Z,99.90
2018-07-26T04:07:21.389Z,99.90
2018-07-26T04:09:50.798Z,99.90
2018-07-26T04:12:20.394Z,99.90
2018-07-26T04:14:50.004Z,99.90
2018-07-26T04:17:19.522Z,99.90
2018-07-26T04:19:49.216Z,99.90
2018-07-26T04:22:18.689Z,99.90
2018-07-26T04:24:48.221Z,99.90
2018-07-26T04:27:17.521Z,99.90
2018-07-26T04:29:46.982Z,99.90
2018-07-26T04:32:16.593Z,99.90
2018-07-26T04:34:46.107Z,99.90
2018-07-26T04:37:15.875Z,99.90
2018-07-26T04:39:45.356Z,99.90
2018-07-26T04:42:14.822Z,99.90
2018-07-26T04:44:44.070Z,99.90
2018-07-26T04:47:13.775Z,99.90
2018-07-26T04:49:44.044Z,99.90
2018-07-26T04:52:13.554Z,99.90
2018-07-26T04:54:42.586Z,99.90
2018-07-26T04:57:12.076Z,99.90
2018-07-26T04:59:41.398Z,99.90
2018-07-26T05:02:12.248Z,99.90
2018-07-26T05:04:41.786Z,99.90
2018-07-26T05:07:11.454Z,99.90
2018-07-26T05:09:40.799Z,99.90
2018-07-26T05:14:39.995Z,99.90
2018-07-26T05:17:09.468Z,99.90
2018-07-26T05:19:39.123Z,99.90
2018-07-26T05:22:08.679Z,99.90
2018-07-26T05:24:38.158Z,99.90
2018-07-26T05:27:07.569Z,99.90
2018-07-26T05:29:36.709Z,99.30
2018-07-26T05:32:06.415Z,99.90
2018-07-26T05:34:35.938Z,99.60
2018-07-26T05:37:05.577Z,99.10
2018-07-26T05:39:35.013Z,98.10
2018-07-26T05:42:04.245Z,97.30
2018-07-26T05:44:33.458Z,95.70
2018-07-26T05:47:02.787Z,97.10
2018-07-26T05:49:32.177Z,97.10
2018-07-26T05:54:30.530Z,96.40
2018-07-26T05:56:59.840Z,96.70
2018-07-26T05:59:29.586Z,94.90
2018-07-26T06:01:59.183Z,94.80
2018-07-26T06:04:28.929Z,93.80
2018-07-26T06:06:59.010Z,91.40
2018-07-26T06:09:28.646Z,89.00
2018-07-26T06:11:58.013Z,84.40
2018-07-26T06:16:56.168Z,84.40
2018-07-26T06:19:25.587Z,79.90
2018-07-26T06:21:54.982Z,77.60
2018-07-26T06:24:24.592Z,78.70
2018-07-26T06:26:54.065Z,78.90
2018-07-26T06:29:23.480Z,81.50
2018-07-26T06:31:52.899Z,85.00
2018-07-26T06:34:23.195Z,88.80
2018-07-26T06:36:52.637Z,89.90
2018-07-26T06:39:22.948Z,90.00
2018-07-26T06:41:52.474Z,89.10
2018-07-26T06:44:22.021Z,89.40
2018-07-26T06:46:51.435Z,91.20
2018-07-26T06:49:21.039Z,91.00
2018-07-26T06:51:50.660Z,91.90
2018-07-26T06:54:20.008Z,93.20
2018-07-26T06:59:18.417Z,93.00
2018-07-26T07:01:47.760Z,91.50
2018-07-26T07:04:17.715Z,93.30
2018-07-26T07:06:47.326Z,93.80
2018-07-26T07:09:16.930Z,93.10
2018-07-26T07:11:46.389Z,94.60
2018-07-26T07:14:16.374Z,92.50
2018-07-26T07:16:46.142Z,90.00
2018-07-26T07:19:15.661Z,84.10
2018-07-26T07:21:45.262Z,81.00
2018-07-26T07:24:21.454Z,72.30
2018-07-26T07:26:52.821Z,67.70
2018-07-26T07:29:22.682Z,69.00
2018-07-26T07:31:52.014Z,66.30
2018-07-26T07:34:21.633Z,61.60
2018-07-26T07:36:51.141Z,62.30
2018-07-26T07:39:20.686Z,60.60
2018-07-26T07:41:50.104Z,62.20
2018-07-26T07:44:19.758Z,64.00
2018-07-26T07:46:49.322Z,67.10
2018-07-26T07:49:18.725Z,66.00
2018-07-26T07:51:48.212Z,62.50
2018-07-26T07:54:17.684Z,68.30
2018-07-26T07:56:47.031Z,63.60
2018-07-26T07:59:16.641Z,63.60
2018-07-26T08:01:46.310Z,65.50
2018-07-26T08:04:15.883Z,68.60
2018-07-26T08:06:45.471Z,70.20
2018-07-26T08:09:14.950Z,63.80
2018-07-26T08:11:44.338Z,65.20
2018-07-26T08:14:14.395Z,68.10
2018-07-26T08:16:43.977Z,69.50
2018-07-26T08:19:13.692Z,67.20
2018-07-26T08:21:43.125Z,67.10
2018-07-26T08:24:12.689Z,65.80
2018-07-26T08:26:42.243Z,63.00
2018-07-26T08:29:11.736Z,65.30
2018-07-26T08:31:41.487Z,70.60
2018-07-26T08:34:11.095Z,66.10
2018-07-26T08:36:40.796Z,69.10
2018-07-26T08:39:12.116Z,67.80
2018-07-26T08:41:41.949Z,63.90
2018-07-26T08:44:11.386Z,64.90
2018-07-26T08:46:41.024Z,65.10
2018-07-26T08:49:10.482Z,66.60
2018-07-26T08:51:39.833Z,64.50
2018-07-26T10:00:33.944Z,57.60
2018-07-26T10:03:03.700Z,57.10
2018-07-26T10:05:33.117Z,55.40
2018-07-26T10:08:02.594Z,57.20
2018-07-26T10:10:32.047Z,54.00
2018-07-26T10:13:01.588Z,55.30
2018-07-26T10:15:31.283Z,55.20
2018-07-26T10:18:01.144Z,56.70
2018-07-26T10:20:30.683Z,56.40
2018-07-26T10:23:00.251Z,54.00
2018-07-26T10:25:29.729Z,56.10
2018-07-26T10:27:59.157Z,57.00
2018-07-26T10:30:28.964Z,57.50
2018-07-26T10:32:58.250Z,54.70
2018-07-26T10:35:27.753Z,53.30
2018-07-26T10:37:57.260Z,53.10
2018-07-26T10:40:26.680Z,50.80
2018-07-26T10:42:56.403Z,50.30
2018-07-26T10:45:25.916Z,51.70
2018-07-26T10:47:55.362Z,49.90
2018-07-26T10:50:24.672Z,51.00
2018-07-26T10:52:54.047Z,50.00
2018-07-26T10:55:23.624Z,50.30
2018-07-26T10:57:53.322Z,52.10
2018-07-26T11:00:23.624Z,50.80
2018-07-26T11:02:52.954Z,47.60
2018-07-26T11:05:22.451Z,45.50
2018-07-26T11:07:51.730Z,45.70
2018-07-26T11:10:21.014Z,48.70
2018-07-26T11:12:50.299Z,45.90
2018-07-26T11:17:56.132Z,47.90
2018-07-26T11:20:25.682Z,49.30
2018-07-26T11:22:55.190Z,51.50
2018-07-26T11:25:24.744Z,51.60
2018-07-26T11:27:55.446Z,45.40
2018-07-26T11:30:25.084Z,44.90
2018-07-26T11:32:54.322Z,43.10
2018-07-26T11:35:23.888Z,45.20
2018-07-26T11:37:53.538Z,45.70
2018-07-26T11:40:23.108Z,44.80
2018-07-26T11:42:53.507Z,47.00
2018-07-26T11:45:23.143Z,48.90
2018-07-26T11:47:52.513Z,46.10
2018-07-26T11:50:22.049Z,45.20
2018-07-26T11:52:51.733Z,42.90
2018-07-26T11:55:21.333Z,49.30
2018-07-26T11:57:50.690Z,46.60
2018-07-26T12:00:20.372Z,44.20
2018-07-26T12:02:49.652Z,49.40
2018-07-26T12:05:18.924Z,47.90
2018-07-26T12:07:48.377Z,46.50
2018-07-26T12:10:17.818Z,44.00
2018-07-26T12:15:16.256Z,47.70
2018-07-26T12:17:45.592Z,44.00
2018-07-26T12:20:15.681Z,49.40
2018-07-26T12:22:46.112Z,45.10
2018-07-26T12:25:17.093Z,49.10
2018-07-26T12:27:46.571Z,42.70
2018-07-26T12:30:16.287Z,41.80
2018-07-26T12:32:45.614Z,40.60
2018-07-26T12:35:15.156Z,40.40
2018-07-26T12:37:44.630Z,44.10
2018-07-26T12:40:14.222Z,44.30
2018-07-26T12:42:43.953Z,45.40
2018-07-26T12:45:13.378Z,47.90
2018-07-26T12:47:42.917Z,44.50
2018-07-26T12:50:12.472Z,42.30
2018-07-26T12:52:41.918Z,45.00
2018-07-26T12:55:11.563Z,45.10
2018-07-26T12:57:40.873Z,42.00
2018-07-26T13:00:10.642Z,41.20
2018-07-26T13:02:40.481Z,38.70
2018-07-26T13:05:10.262Z,41.10
2018-07-26T13:07:39.805Z,41.20
2018-07-26T13:10:09.244Z,41.20
2018-07-26T13:12:38.715Z,42.30
2018-07-26T13:15:08.853Z,44.40
2018-07-26T13:17:38.438Z,46.50
2018-07-26T13:20:08.635Z,45.50
2018-07-26T13:22:37.938Z,44.70
2018-07-26T13:25:07.463Z,46.30
2018-07-26T13:27:36.911Z,49.30
2018-07-26T13:30:06.500Z,44.80
2018-07-26T13:32:35.852Z,46.30
2018-07-26T13:35:04.965Z,47.90
2018-07-26T13:37:34.313Z,46.50
2018-07-26T13:40:03.514Z,44.30
2018-07-26T13:42:33.180Z,43.10
2018-07-26T13:45:02.833Z,41.30
2018-07-26T13:47:32.741Z,38.20
2018-07-26T13:50:02.357Z,36.20
2018-07-26T13:52:31.958Z,38.70
2018-07-26T13:55:01.358Z,34.80
2018-07-26T13:57:30.840Z,37.90
2018-07-26T14:00:00.364Z,40.00
2018-07-26T14:02:30.250Z,35.50
2018-07-26T14:04:59.745Z,37.90
2018-07-26T14:07:29.451Z,40.50
2018-07-26T14:09:59.165Z,39.60
2018-07-26T14:12:29.104Z,42.80
2018-07-26T14:14:58.681Z,42.50
2018-07-26T14:17:28.482Z,41.90
2018-07-26T14:19:58.171Z,43.30
2018-07-26T14:22:27.708Z,50.10
2018-07-26T14:25:03.589Z,42.90
2018-07-26T14:27:33.062Z,42.20
2018-07-26T14:30:03.111Z,40.30
2018-07-26T14:32:34.029Z,40.50
2018-07-26T14:35:03.694Z,38.80
2018-07-26T14:37:33.130Z,36.50
2018-07-26T14:40:02.936Z,37.50
2018-07-26T14:42:32.409Z,36.80
2018-07-26T14:45:02.491Z,36.50
2018-07-26T14:47:32.502Z,37.10
2018-07-26T14:50:02.571Z,39.40
2018-07-26T14:52:37.503Z,38.10
2018-07-26T14:55:07.167Z,38.40
2018-07-26T14:57:36.852Z,36.20
2018-07-26T15:00:06.752Z,38.20
2018-07-26T15:02:36.186Z,37.20
2018-07-26T15:05:05.567Z,38.20
2018-07-26T15:07:35.099Z,39.40
2018-07-26T15:10:04.611Z,38.50
2018-07-26T15:12:33.905Z,39.30
2018-07-26T15:15:03.446Z,40.10
2018-07-26T15:20:01.858Z,39.80
2018-07-26T15:22:32.104Z,35.80
2018-07-26T15:25:01.948Z,35.80
2018-07-26T15:27:31.403Z,36.50
2018-07-26T15:30:00.890Z,36.90
2018-07-26T15:32:30.684Z,35.30
2018-07-26T15:34:59.997Z,37.60
2018-07-26T15:37:29.574Z,39.30
2018-07-26T15:39:59.058Z,37.50
2018-07-26T15:42:28.565Z,36.80
2018-07-26T15:44:57.990Z,39.20
2018-07-26T15:47:27.536Z,38.90
2018-07-26T15:49:57.947Z,41.70
2018-07-26T15:52:27.437Z,44.40
2018-07-26T15:54:58.814Z,44.30
2018-07-26T15:57:28.344Z,42.50
2018-07-26T15:59:58.023Z,41.70
2018-07-26T16:02:27.599Z,39.90
2018-07-26T16:04:57.426Z,39.60
2018-07-26T16:07:26.900Z,42.50
2018-07-26T16:09:56.383Z,42.30
2018-07-26T16:12:25.905Z,40.40
2018-07-26T16:14:56.001Z,42.20
2018-07-26T16:17:25.536Z,39.90
2018-07-26T16:19:55.129Z,45.20
2018-07-26T16:22:24.690Z,40.80
2018-07-26T16:24:54.172Z,40.70
2018-07-26T16:27:23.673Z,42.70
2018-07-26T16:29:53.149Z,42.10
2018-07-26T16:32:22.737Z,40.00
2018-07-26T16:37:21.098Z,40.00
2018-07-26T16:39:50.862Z,38.60
2018-07-26T16:42:20.439Z,41.20
2018-07-26T16:44:49.874Z,41.10
2018-07-26T16:47:19.341Z,42.20
2018-07-26T16:49:49.012Z,46.60
2018-07-26T16:52:18.599Z,43.80
2018-07-26T16:54:47.958Z,41.70
2018-07-26T16:57:17.332Z,42.40
2018-07-26T16:59:47.073Z,43.60
2018-07-26T17:02:16.700Z,43.60
2018-07-26T17:04:45.970Z,42.40
2018-07-26T17:07:16.254Z,42.10
2018-07-26T17:09:45.860Z,44.30
2018-07-26T17:12:15.479Z,43.50
2018-07-26T17:14:44.861Z,43.70
2018-07-26T17:17:14.159Z,43.60
2018-07-26T17:19:43.897Z,42.80
2018-07-26T17:22:13.304Z,43.10
2018-07-26T17:24:42.927Z,44.70
2018-07-26T17:27:12.355Z,44.10
2018-07-26T17:29:42.205Z,44.30
2018-07-26T17:32:11.663Z,45.00
2018-07-26T17:34:41.018Z,44.90
2018-07-26T17:37:10.604Z,45.90
2018-07-26T17:39:40.184Z,44.90
2018-07-26T17:42:09.937Z,44.60
2018-07-26T17:44:39.178Z,45.40
2018-07-26T17:47:08.645Z,46.40
2018-07-26T17:49:38.027Z,46.20
2018-07-26T17:52:07.382Z,46.30
2018-07-26T17:54:36.750Z,45.70
2018-07-26T17:57:06.061Z,47.50
2018-07-26T17:59:35.168Z,46.20
2018-07-26T18:02:04.534Z,46.90
2018-07-26T18:04:33.921Z,46.40
2018-07-26T18:07:03.325Z,46.70
2018-07-26T18:09:32.861Z,46.50
2018-07-26T18:12:03.279Z,48.20
2018-07-26T18:14:33.008Z,47.80
2018-07-26T18:17:02.535Z,47.60
2018-07-26T18:19:31.952Z,48.90
2018-07-26T18:22:01.360Z,48.10
2018-07-26T18:24:30.790Z,50.20
2018-07-26T18:27:00.438Z,50.10
2018-07-26T18:29:29.770Z,50.80
2018-07-26T18:31:59.245Z,49.50
2018-07-26T18:34:28.798Z,54.60
2018-07-26T18:36:58.455Z,52.70
2018-07-26T18:39:27.912Z,52.00
2018-07-26T18:41:57.298Z,56.70
2018-07-26T18:44:27.197Z,55.00
2018-07-26T18:46:56.639Z,54.10
2018-07-26T18:49:26.148Z,56.20
2018-07-26T18:51:55.995Z,56.60
2018-07-26T18:54:25.479Z,55.50
2018-07-26T18:56:54.993Z,56.90
2018-07-26T18:59:24.353Z,57.60
2018-07-26T19:01:54.021Z,58.40
2018-07-26T19:04:23.341Z,68.90
2018-07-26T19:06:52.640Z,70.60
2018-07-26T19:09:22.262Z,71.20
2018-07-26T19:11:51.835Z,68.50
2018-07-26T19:14:21.268Z,73.10
2018-07-26T19:16:50.749Z,69.70
2018-07-26T19:19:20.317Z,72.90
2018-07-26T19:21:50.730Z,76.90
2018-07-26T19:24:21.046Z,80.70
2018-07-26T19:26:50.519Z,77.50
2018-07-26T19:29:20.577Z,91.90
2018-07-26T19:31:50.708Z,92.20
2018-07-26T19:34:20.158Z,84.60
2018-07-26T19:36:49.987Z,92.40
2018-07-26T19:39:19.725Z,90.80
2018-07-26T19:41:49.331Z,89.90
2018-07-26T19:44:19.439Z,85.00
2018-07-26T19:46:48.886Z,85.10
2018-07-26T19:49:18.648Z,90.60
2018-07-26T19:51:48.897Z,94.60
2018-07-26T19:54:18.477Z,96.10
2018-07-26T19:56:48.308Z,97.10
2018-07-26T19:59:17.842Z,98.20
2018-07-26T20:01:47.278Z,99.30
2018-07-26T20:04:16.822Z,98.90
2018-07-26T20:06:46.546Z,99.90
2018-07-26T20:09:16.518Z,97.10
2018-07-26T20:11:46.566Z,98.90
2018-07-26T20:14:16.027Z,99.20
2018-07-26T20:16:45.581Z,93.80
2018-07-26T20:19:15.436Z,97.40
2018-07-26T20:24:13.886Z,95.70
2018-07-26T20:26:43.659Z,93.90
2018-07-26T20:29:13.220Z,92.50
2018-07-26T20:31:42.920Z,93.10
2018-07-26T20:34:12.520Z,91.70
2018-07-26T20:36:41.962Z,91.30
2018-07-26T20:39:13.817Z,91.20
2018-07-26T20:41:43.130Z,89.30
2018-07-26T20:44:12.673Z,89.00
2018-07-26T20:46:42.325Z,88.90
2018-07-26T20:49:11.813Z,86.30
2018-07-26T20:51:41.448Z,86.90
2018-07-26T20:54:11.371Z,83.40
2018-07-26T20:56:41.106Z,83.70
2018-07-26T20:59:10.640Z,86.00
2018-07-26T21:01:40.157Z,85.20
2018-07-26T21:04:09.454Z,84.80
2018-07-26T21:06:38.998Z,84.50
2018-07-26T21:09:11.329Z,87.60
2018-07-26T21:11:40.907Z,86.90
2018-07-26T21:14:10.485Z,85.40
2018-07-26T21:16:40.053Z,85.60
2018-07-26T21:19:10.124Z,85.70
2018-07-26T21:21:39.707Z,85.60
2018-07-26T21:24:09.149Z,88.10
2018-07-26T21:26:39.700Z,86.10
2018-07-26T21:29:09.747Z,84.60
2018-07-26T21:31:39.766Z,85.90
2018-07-26T21:34:09.685Z,86.60
2018-07-26T21:36:38.997Z,87.00
2018-07-26T21:39:10.141Z,84.90
2018-07-26T21:41:39.885Z,86.50
2018-07-26T21:44:09.297Z,85.60
2018-07-26T21:46:38.941Z,84.40
2018-07-26T21:49:08.525Z,83.80
2018-07-26T21:51:38.013Z,85.30
2018-07-26T21:54:07.546Z,84.40
2018-07-26T21:56:36.902Z,85.20
2018-07-26T21:59:06.414Z,85.00
2018-07-26T22:01:35.915Z,85.50
2018-07-26T22:04:05.442Z,85.00
2018-07-26T22:06:34.721Z,85.40
2018-07-26T22:09:05.034Z,84.80
2018-07-26T22:11:34.766Z,85.20
2018-07-26T22:14:04.384Z,86.00
2018-07-26T22:16:33.910Z,87.20
2018-07-26T22:19:03.411Z,85.80
2018-07-26T22:21:33.015Z,87.60
2018-07-26T22:24:02.597Z,84.90
2018-07-26T22:26:32.064Z,86.60
2018-07-26T22:29:01.655Z,85.20
2018-07-26T22:31:32.451Z,85.10
2018-07-26T22:34:01.925Z,85.70
2018-07-26T22:36:31.363Z,88.40
2018-07-26T22:39:00.771Z,85.60
2018-07-26T22:41:30.256Z,87.30
2018-07-26T22:43:59.734Z,86.10
2018-07-26T22:46:29.326Z,86.80
2018-07-26T22:48:58.778Z,87.20
2018-07-26T22:51:28.059Z,89.10
2018-07-26T22:53:57.489Z,90.10
2018-07-26T22:56:26.917Z,89.50
2018-07-26T22:58:56.559Z,91.00
2018-07-26T23:01:26.254Z,88.60
2018-07-26T23:03:55.740Z,90.40
2018-07-26T23:06:25.388Z,91.40
2018-07-26T23:08:54.994Z,90.00
2018-07-26T23:11:24.404Z,93.60
2018-07-26T23:13:53.950Z,94.00
2018-07-26T23:16:23.462Z,94.00
2018-07-26T23:18:53.201Z,95.90
2018-07-26T23:21:22.660Z,99.10
2018-07-26T23:23:53.140Z,98.70
2018-07-26T23:26:22.603Z,99.90
2018-07-26T23:28:52.098Z,99.90
2018-07-26T23:31:21.646Z,99.90
2018-07-26T23:33:51.433Z,99.90
2018-07-26T23:36:21.129Z,99.90
2018-07-26T23:38:51.730Z,99.50
2018-07-26T23:41:21.562Z,99.90
2018-07-26T23:43:51.091Z,99.90
2018-07-26T23:46:20.453Z,99.80
2018-07-26T23:48:50.026Z,99.90
2018-07-26T23:51:19.727Z,99.70
2018-07-26T23:53:49.119Z,99.90
2018-07-26T23:56:18.473Z,99.90
2018-07-26T23:58:48.185Z,99.90
